Time,TemperatureF,DewpointF,PressureIn,WindDirection,WindDirectionDegrees,WindSpeedMPH,WindSpeedGustMPH,Humidity,HourlyPrecipIn,Conditions,Clouds,dailyrainin,SoftwareType,DateUTC
2013-02-25 00:00:00,41.8,35.5,29.85,West,269,0.0,2.0,78,0.00,,,0.05,WeatherCatV1.00B22,2013-02-25 05:00:00,
2013-02-25 00:05:00,41.8,35.8,29.85,West,269,0.0,0.0,79,0.00,,,0.00,WeatherCatV1.00B22,2013-02-25 05:05:00,
2013-02-25 00:10:00,41.7,36.0,29.85,West,269,0.0,0.0,80,0.00,,,0.00,WeatherCatV1.00B22,2013-02-25 05:10:00,
2013-02-25 00:15:00,41.6,35.9,29.85,West,269,0.0,0.0,80,0.00,,,0.00,WeatherCatV1.00B22,2013-02-25 05:15:00,
2013-02-25 00:20:00,41.5,35.8,29.84,West,269,1.0,1.0,80,0.00,,,0.00,WeatherCatV1.00B22,2013-02-25 05:20:00,
2013-02-25 00:25:00,41.2,34.9,29.84,West,269,0.0,0.0,78,0.00,,,0.00,WeatherCatV1.00B22,2013-02-25 05:25:00,
2013-02-25 00:30:00,40.9,33.6,29.84,NNW,344,0.0,1.0,75,0.00,,,0.00,WeatherCatV1.00B22,2013-02-25 05:30:00,
2013-02-25 00:35:00,40.7,32.4,29.84,North,10,1.0,2.0,72,0.00,,,0.00,WeatherCatV1.00B22,2013-02-25 05:35:00,
2013-02-25 00:40:00,40.5,33.2,29.84,NNE,14,0.0,1.0,75,0.00,,,0.00,WeatherCatV1.00B22,2013-02-25 05:40:00,
2013-02-25 00:45:00,40.5,33.5,29.84,NNE,14,0.0,0.0,76,0.00,,,0.00,WeatherCatV1.00B22,2013-02-25 05:45:00,
2013-02-25 00:50:00,40.5,34.5,29.84,NNE,14,0.0,0.0,79,0.00,,,0.00,WeatherCatV1.00B22,2013-02-25 05:50:00,
2013-02-25 00:55:00,40.5,35.1,29.84,NNE,14,0.0,0.0,81,0.00,,,0.00,WeatherCatV1.00B22,2013-02-25 05:55:00,
2013-02-25 01:00:00,40.5,34.8,29.84,NNE,14,0.0,1.0,80,0.00,,,0.00,WeatherCatV1.00B22,2013-02-25 06:00:00,
2013-02-25 01:05:00,40.4,34.7,29.84,NNE,14,2.0,2.0,80,0.00,,,0.00,WeatherCatV1.00B22,2013-02-25 06:05:00,
2013-02-25 01:10:00,40.3,34.6,29.84,NNE,14,0.0,0.0,80,0.00,,,0.00,WeatherCatV1.00B22,2013-02-25 06:10:00,
2013-02-25 01:15:00,40.3,34.9,29.85,NNE,14,1.0,1.0,81,0.00,,,0.00,WeatherCatV1.00B22,2013-02-25 06:15:00,
2013-02-25 01:20:00,40.3,34.9,29.85,NNE,14,0.0,0.0,81,0.00,,,0.00,WeatherCatV1.00B22,2013-02-25 06:20:00,
2013-02-25 01:25:00,40.3,35.2,29.85,NNE,14,0.0,0.0,82,0.00,,,0.00,WeatherCatV1.00B22,2013-02-25 06:25:00,
2013-02-25 01:30:00,40.3,35.2,29.84,NNE,14,0.0,0.0,82,0.00,,,0.00,WeatherCatV1.00B22,2013-02-25 06:30:00,
2013-02-25 01:35:00,40.3,35.2,29.84,NNE,14,0.0,0.0,82,0.00,,,0.00,WeatherCatV1.00B22,2013-02-25 06:35:00,
2013-02-25 01:40:00,40.2,35.2,29.84,NNE,14,0.0,0.0,82,0.00,,,0.00,WeatherCatV1.00B22,2013-02-25 06:40:00,
2013-02-25 01:45:00,40.1,34.7,29.83,NNE,14,0.0,1.0,81,0.00,,,0.00,WeatherCatV1.00B22,2013-02-25 06:45:00,
2013-02-25 01:50:00,40.0,33.7,29.83,NNE,14,0.0,1.0,78,0.00,,,0.00,WeatherCatV1.00B22,2013-02-25 06:50:00,
2013-02-25 01:55:00,40.1,33.8,29.83,NNE,14,1.0,2.0,78,0.00,,,0.00,WeatherCatV1.00B22,2013-02-25 06:55:00,
2013-02-25 02:00:00,40.0,34.0,29.83,NNE,14,0.0,0.0,79,0.00,,,0.00,WeatherCatV1.00B22,2013-02-25 07:00:00,
2013-02-25 02:05:00,40.0,33.7,29.83,NNE,14,0.0,0.0,78,0.00,,,0.00,WeatherCatV1.00B22,2013-02-25 07:05:00,
2013-02-25 02:10:00,40.0,34.0,29.84,NNE,14,0.0,0.0,79,0.00,,,0.00,WeatherCatV1.00B22,2013-02-25 07:10:00,
2013-02-25 02:15:00,40.0,33.7,29.84,NNE,14,0.0,1.0,78,0.00,,,0.00,WeatherCatV1.00B22,2013-02-25 07:15:00,
2013-02-25 02:20:00,39.9,33.9,29.83,NNE,14,0.0,1.0,79,0.00,,,0.00,WeatherCatV1.00B22,2013-02-25 07:20:00,
2013-02-25 02:25:00,39.9,33.9,29.83,NNE,14,0.0,0.0,79,0.00,,,0.00,WeatherCatV1.00B22,2013-02-25 07:25:00,
2013-02-25 02:30:00,39.8,34.1,29.83,NNE,14,0.0,0.0,80,0.00,,,0.00,WeatherCatV1.00B22,2013-02-25 07:30:00,
2013-02-25 02:35:00,39.7,34.0,29.83,NNE,14,0.0,0.0,80,0.00,,,0.00,WeatherCatV1.00B22,2013-02-25 07:35:00,
2013-02-25 02:40:00,39.7,34.0,29.83,NNE,14,0.0,0.0,80,0.00,,,0.00,WeatherCatV1.00B22,2013-02-25 07:40:00,
2013-02-25 02:45:00,39.6,33.9,29.83,NNE,14,0.0,0.0,80,0.00,,,0.00,WeatherCatV1.00B22,2013-02-25 07:45:00,
2013-02-25 02:50:00,39.5,33.8,29.83,NNE,14,0.0,0.0,80,0.00,,,0.00,WeatherCatV1.00B22,2013-02-25 07:50:00,
2013-02-25 02:55:00,39.6,33.9,29.83,NNE,14,0.0,0.0,80,0.00,,,0.00,WeatherCatV1.00B22,2013-02-25 07:55:00,
2013-02-25 03:00:00,39.6,33.9,29.83,NNE,14,0.0,0.0,80,0.00,,,0.00,WeatherCatV1.00B22,2013-02-25 08:00:00,
2013-02-25 03:05:00,39.6,33.9,29.83,NNE,14,0.0,0.0,80,0.00,,,0.00,WeatherCatV1.00B22,2013-02-25 08:05:00,
2013-02-25 03:10:00,39.6,34.3,29.83,NNE,14,0.0,0.0,81,0.00,,,0.00,WeatherCatV1.00B22,2013-02-25 08:10:00,
2013-02-25 03:15:00,39.7,34.4,29.84,NNE,14,0.0,0.0,81,0.00,,,0.00,WeatherCatV1.00B22,2013-02-25 08:15:00,
2013-02-25 03:20:00,39.7,34.4,29.84,NNE,14,0.0,0.0,81,0.00,,,0.00,WeatherCatV1.00B22,2013-02-25 08:20:00,
2013-02-25 03:25:00,39.6,34.3,29.83,NNE,14,2.0,2.0,81,0.00,,,0.00,WeatherCatV1.00B22,2013-02-25 08:25:00,
2013-02-25 03:30:00,39.4,34.4,29.83,NNE,21,3.0,4.0,82,0.00,,,0.00,WeatherCatV1.00B22,2013-02-25 08:30:00,
2013-02-25 03:35:00,39.3,34.6,29.84,NNE,24,2.0,3.0,83,0.00,,,0.00,WeatherCatV1.00B22,2013-02-25 08:35:00,
2013-02-25 03:40:00,39.4,35.0,29.84,NNE,24,2.0,3.0,84,0.00,,,0.00,WeatherCatV1.00B22,2013-02-25 08:40:00,
2013-02-25 03:45:00,39.5,35.1,29.83,NNE,30,3.0,4.0,84,0.00,,,0.00,WeatherCatV1.00B22,2013-02-25 08:45:00,
2013-02-25 03:50:00,39.7,35.0,29.83,NE,40,4.0,4.0,83,0.00,,,0.00,WeatherCatV1.00B22,2013-02-25 08:50:00,
2013-02-25 03:55:00,40.1,34.4,29.83,NE,35,4.0,4.0,80,0.00,,,0.00,WeatherCatV1.00B22,2013-02-25 08:55:00,
2013-02-25 04:00:00,40.5,34.2,29.83,NE,34,3.0,5.0,78,0.00,,,0.00,WeatherCatV1.00B22,2013-02-25 09:00:00,
2013-02-25 04:05:00,40.8,33.5,29.83,NE,42,3.0,5.0,75,0.00,,,0.00,WeatherCatV1.00B22,2013-02-25 09:05:00,
2013-02-25 04:10:00,41.1,33.8,29.83,NE,34,5.0,5.0,75,0.00,,,0.00,WeatherCatV1.00B22,2013-02-25 09:10:00,
2013-02-25 04:15:00,41.1,33.5,29.83,NE,46,4.0,5.0,74,0.00,,,0.00,WeatherCatV1.00B22,2013-02-25 09:15:00,
2013-02-25 04:20:00,41.1,33.8,29.83,NE,42,4.0,5.0,75,0.00,,,0.00,WeatherCatV1.00B22,2013-02-25 09:20:00,
2013-02-25 04:25:00,41.1,33.8,29.83,NNE,30,4.0,5.0,75,0.00,,,0.00,WeatherCatV1.00B22,2013-02-25 09:25:00,
2013-02-25 04:30:00,41.2,33.6,29.83,NE,40,4.0,5.0,74,0.00,,,0.00,WeatherCatV1.00B22,2013-02-25 09:30:00,
2013-02-25 04:35:00,41.3,34.0,29.84,NE,36,4.0,4.0,75,0.00,,,0.00,WeatherCatV1.00B22,2013-02-25 09:35:00,
2013-02-25 04:40:00,41.4,33.7,29.84,NE,36,3.0,3.0,74,0.00,,,0.00,WeatherCatV1.00B22,2013-02-25 09:40:00,
2013-02-25 04:45:00,41.4,33.7,29.85,ENE,59,2.0,2.0,74,0.00,,,0.00,WeatherCatV1.00B22,2013-02-25 09:45:00,
2013-02-25 04:50:00,41.5,32.8,29.85,ENE,59,1.0,3.0,71,0.00,,,0.00,WeatherCatV1.00B22,2013-02-25 09:50:00,
2013-02-25 04:55:00,41.7,32.3,29.85,ENE,63,2.0,3.0,69,0.00,,,0.00,WeatherCatV1.00B22,2013-02-25 09:55:00,
2013-02-25 05:00:00,42.0,31.9,29.85,NE,37,5.0,6.0,67,0.00,,,0.00,WeatherCatV1.00B22,2013-02-25 10:00:00,
2013-02-25 05:05:00,42.4,33.0,29.85,NE,46,3.0,4.0,69,0.00,,,0.00,WeatherCatV1.00B22,2013-02-25 10:05:00,
2013-02-25 05:10:00,42.5,32.0,29.85,NE,51,4.0,5.0,66,0.00,,,0.00,WeatherCatV1.00B22,2013-02-25 10:10:00,
2013-02-25 05:15:00,42.8,32.2,29.86,NE,46,5.0,6.0,66,0.00,,,0.00,WeatherCatV1.00B22,2013-02-25 10:15:00,
2013-02-25 05:20:00,43.1,32.1,29.86,NE,44,3.0,5.0,65,0.00,,,0.00,WeatherCatV1.00B22,2013-02-25 10:20:00,
2013-02-25 05:25:00,43.3,32.3,29.87,ENE,64,5.0,6.0,65,0.00,,,0.00,WeatherCatV1.00B22,2013-02-25 10:25:00,
2013-02-25 05:30:00,43.5,31.8,29.86,NE,38,7.0,8.0,63,0.00,,,0.00,WeatherCatV1.00B22,2013-02-25 10:30:00,
2013-02-25 05:35:00,43.9,31.3,29.86,NE,35,7.0,11.0,61,0.00,,,0.00,WeatherCatV1.00B22,2013-02-25 10:35:00,
2013-02-25 05:40:00,44.2,31.2,29.86,NE,36,9.0,9.0,60,0.00,,,0.00,WeatherCatV1.00B22,2013-02-25 10:40:00,
2013-02-25 05:45:00,44.2,30.8,29.86,NE,49,9.0,10.0,59,0.00,,,0.00,WeatherCatV1.00B22,2013-02-25 10:45:00,
2013-02-25 05:50:00,44.4,31.4,29.86,NE,41,7.0,10.0,60,0.00,,,0.00,WeatherCatV1.00B22,2013-02-25 10:50:00,
2013-02-25 05:55:00,44.5,30.7,29.86,NE,41,7.0,8.0,58,0.00,,,0.00,WeatherCatV1.00B22,2013-02-25 10:55:00,
2013-02-25 06:00:00,44.6,30.7,29.87,NE,36,5.0,8.0,58,0.00,,,0.00,WeatherCatV1.00B22,2013-02-25 11:00:00,
2013-02-25 06:05:00,44.8,30.9,29.86,ENE,62,8.0,9.0,58,0.00,,,0.00,WeatherCatV1.00B22,2013-02-25 11:05:00,
2013-02-25 06:10:00,45.0,30.7,29.86,NE,42,7.0,10.0,57,0.00,,,0.00,WeatherCatV1.00B22,2013-02-25 11:10:00,
2013-02-25 06:15:00,45.3,31.4,29.86,NE,42,7.0,9.0,58,0.00,,,0.00,WeatherCatV1.00B22,2013-02-25 11:15:00,
2013-02-25 06:20:00,45.4,31.1,29.86,ENE,60,7.0,11.0,57,0.00,,,0.00,WeatherCatV1.00B22,2013-02-25 11:20:00,
2013-02-25 06:25:00,45.6,29.9,29.86,NE,43,11.0,12.0,54,0.00,,,0.00,WeatherCatV1.00B22,2013-02-25 11:25:00,
2013-02-25 06:30:00,45.8,30.6,29.86,NE,45,8.0,10.0,55,0.00,,,0.00,WeatherCatV1.00B22,2013-02-25 11:30:00,
2013-02-25 06:35:00,45.9,30.2,29.87,ENE,72,7.0,10.0,54,0.00,,,0.00,WeatherCatV1.00B22,2013-02-25 11:35:00,
2013-02-25 06:40:00,46.0,30.7,29.87,NE,42,7.0,8.0,55,0.00,,,0.00,WeatherCatV1.00B22,2013-02-25 11:40:00,
2013-02-25 06:45:00,46.0,30.3,29.87,NE,44,7.0,9.0,54,0.00,,,0.00,WeatherCatV1.00B22,2013-02-25 11:45:00,
2013-02-25 06:50:00,46.1,29.9,29.87,NE,34,6.0,8.0,53,0.00,,,0.00,WeatherCatV1.00B22,2013-02-25 11:50:00,
2013-02-25 06:55:00,46.1,29.5,29.88,ESE,115,5.0,10.0,52,0.00,,,0.00,WeatherCatV1.00B22,2013-02-25 11:55:00,
2013-02-25 07:00:00,46.2,30.9,29.88,NE,45,12.0,15.0,55,0.00,,,0.00,WeatherCatV1.00B22,2013-02-25 12:00:00,
2013-02-25 07:05:00,46.1,30.4,29.88,ENE,78,8.0,9.0,54,0.00,,,0.00,WeatherCatV1.00B22,2013-02-25 12:05:00,
2013-02-25 07:10:00,46.0,30.3,29.89,ENE,78,5.0,9.0,54,0.00,,,0.00,WeatherCatV1.00B22,2013-02-25 12:10:00,
2013-02-25 07:13:00,45.9,30.7,29.89,ENE,68,10.0,10.0,55,0.00,,,0.00,WeatherCatV1.00B22,2013-02-25 12:13:00,
2013-02-25 07:18:00,45.7,29.6,29.89,ENE,69,9.0,11.0,53,0.00,,,0.00,WeatherCatV1.00B22,2013-02-25 12:18:00,
2013-02-25 07:23:00,45.6,29.5,29.89,NE,46,10.0,11.0,53,0.00,,,0.00,WeatherCatV1.00B22,2013-02-25 12:23:00,
2013-02-25 07:28:00,45.6,29.9,29.89,ENE,73,7.0,11.0,54,0.00,,,0.00,WeatherCatV1.00B22,2013-02-25 12:28:00,
2013-02-25 07:33:00,45.6,29.9,29.90,NE,38,6.0,10.0,54,0.00,,,0.00,WeatherCatV1.00B22,2013-02-25 12:33:00,
2013-02-25 07:38:00,45.5,29.4,29.90,NE,49,9.0,14.0,53,0.00,,,0.00,WeatherCatV1.00B22,2013-02-25 12:38:00,
2013-02-25 07:43:00,45.5,30.3,29.90,ENE,57,14.0,15.0,55,0.00,,,0.00,WeatherCatV1.00B22,2013-02-25 12:43:00,
2013-02-25 07:48:00,45.4,30.2,29.90,ENE,62,8.0,16.0,55,0.00,,,0.00,WeatherCatV1.00B22,2013-02-25 12:48:00,
2013-02-25 07:53:00,45.4,30.2,29.91,NE,42,8.0,10.0,55,0.00,,,0.00,WeatherCatV1.00B22,2013-02-25 12:53:00,
2013-02-25 07:58:00,45.3,29.6,29.91,ENE,57,7.0,8.0,54,0.00,,,0.00,WeatherCatV1.00B22,2013-02-25 12:58:00,
2013-02-25 08:03:00,45.3,29.6,29.92,NE,42,9.0,10.0,54,0.00,,,0.00,WeatherCatV1.00B22,2013-02-25 13:03:00,
2013-02-25 08:08:00,45.2,29.6,29.92,NE,53,9.0,13.0,54,0.00,,,0.00,WeatherCatV1.00B22,2013-02-25 13:08:00,
2013-02-25 08:13:00,45.2,29.1,29.93,NE,38,10.0,10.0,53,0.00,,,0.00,WeatherCatV1.00B22,2013-02-25 13:13:00,
2013-02-25 08:18:00,45.2,29.6,29.93,NE,44,13.0,13.0,54,0.00,,,0.00,WeatherCatV1.00B22,2013-02-25 13:18:00,
2013-02-25 08:23:00,45.2,29.1,29.94,NE,47,10.0,12.0,53,0.00,,,0.00,WeatherCatV1.00B22,2013-02-25 13:23:00,
2013-02-25 08:28:00,45.2,28.6,29.94,NE,51,9.0,10.0,52,0.00,,,0.00,WeatherCatV1.00B22,2013-02-25 13:28:00,
2013-02-25 08:33:00,45.2,29.1,29.94,NE,56,7.0,11.0,53,0.00,,,0.00,WeatherCatV1.00B22,2013-02-25 13:33:00,
2013-02-25 08:38:00,45.2,29.6,29.94,NE,39,12.0,14.0,54,0.00,,,0.00,WeatherCatV1.00B22,2013-02-25 13:38:00,
2013-02-25 08:43:00,45.2,30.0,29.94,NE,54,7.0,10.0,55,0.00,,,0.00,WeatherCatV1.00B22,2013-02-25 13:43:00,
2013-02-25 08:48:00,45.2,29.1,29.94,NE,42,7.0,12.0,53,0.00,,,0.00,WeatherCatV1.00B22,2013-02-25 13:48:00,
2013-02-25 08:53:00,45.1,28.5,29.94,ENE,57,8.0,17.0,52,0.00,,,0.00,WeatherCatV1.00B22,2013-02-25 13:53:00,
2013-02-25 08:58:00,45.1,29.0,29.94,ENE,59,10.0,14.0,53,0.00,,,0.00,WeatherCatV1.00B22,2013-02-25 13:58:00,
2013-02-25 09:03:00,45.1,29.5,29.94,NE,49,10.0,14.0,54,0.00,,,0.00,WeatherCatV1.00B22,2013-02-25 14:03:00,
2013-02-25 09:08:00,45.1,29.5,29.93,NE,43,8.0,10.0,54,0.00,,,0.00,WeatherCatV1.00B22,2013-02-25 14:08:00,
2013-02-25 09:11:00,45.1,29.5,29.93,ENE,58,7.0,14.0,54,0.00,,,0.00,WeatherCatV1.00B22,2013-02-25 14:11:00,
2013-02-25 09:16:00,45.0,28.9,29.93,ENE,69,8.0,11.0,53,0.00,,,0.00,WeatherCatV1.00B22,2013-02-25 14:16:00,
2013-02-25 09:21:00,45.0,28.4,29.93,NE,48,9.0,20.0,52,0.00,,,0.00,WeatherCatV1.00B22,2013-02-25 14:21:00,
2013-02-25 09:26:00,45.0,28.4,29.93,ENE,67,12.0,19.0,52,0.00,,,0.00,WeatherCatV1.00B22,2013-02-25 14:26:00,
2013-02-25 09:31:00,44.9,29.3,29.94,ENE,57,7.0,14.0,54,0.00,,,0.00,WeatherCatV1.00B22,2013-02-25 14:31:00,
2013-02-25 09:36:00,44.9,28.8,29.94,ENE,70,5.0,10.0,53,0.00,,,0.00,WeatherCatV1.00B22,2013-02-25 14:36:00,
2013-02-25 09:41:00,44.9,27.9,29.93,NNE,22,17.0,17.0,51,0.00,,,0.00,WeatherCatV1.00B22,2013-02-25 14:41:00,
2013-02-25 09:46:00,44.9,28.4,29.94,NE,49,7.0,11.0,52,0.00,,,0.00,WeatherCatV1.00B22,2013-02-25 14:46:00,
2013-02-25 09:51:00,44.9,28.8,29.94,NE,46,10.0,15.0,53,0.00,,,0.00,WeatherCatV1.00B22,2013-02-25 14:51:00,
2013-02-25 09:56:00,45.0,28.0,29.94,ESE,107,5.0,13.0,51,0.00,,,0.00,WeatherCatV1.00B22,2013-02-25 14:56:00,
2013-02-25 10:01:00,45.0,28.4,29.93,East,96,8.0,11.0,52,0.00,,,0.00,WeatherCatV1.00B22,2013-02-25 15:01:00,
2013-02-25 10:06:00,45.0,28.0,29.93,NE,34,8.0,11.0,51,0.00,,,0.00,WeatherCatV1.00B22,2013-02-25 15:06:00,
2013-02-25 10:11:00,45.0,28.0,29.93,ENE,58,9.0,14.0,51,0.00,,,0.00,WeatherCatV1.00B22,2013-02-25 15:11:00,
2013-02-25 10:16:00,45.0,28.9,29.93,NE,39,11.0,14.0,53,0.00,,,0.00,WeatherCatV1.00B22,2013-02-25 15:16:00,
2013-02-25 10:21:00,45.0,28.9,29.92,NE,55,9.0,14.0,53,0.00,,,0.00,WeatherCatV1.00B22,2013-02-25 15:21:00,
2013-02-25 10:26:00,44.9,28.4,29.92,NE,52,6.0,10.0,52,0.00,,,0.00,WeatherCatV1.00B22,2013-02-25 15:26:00,
2013-02-25 10:31:00,45.0,28.0,29.92,NE,43,12.0,14.0,51,0.00,,,0.00,WeatherCatV1.00B22,2013-02-25 15:31:00,
2013-02-25 10:36:00,44.9,28.4,29.92,East,84,8.0,13.0,52,0.00,,,0.00,WeatherCatV1.00B22,2013-02-25 15:36:00,
2013-02-25 10:41:00,44.9,28.8,29.92,NE,51,7.0,8.0,53,0.00,,,0.00,WeatherCatV1.00B22,2013-02-25 15:41:00,
2013-02-25 10:46:00,44.9,28.4,29.92,NE,45,10.0,14.0,52,0.00,,,0.00,WeatherCatV1.00B22,2013-02-25 15:46:00,
2013-02-25 10:51:00,44.9,28.8,29.91,NE,43,10.0,12.0,53,0.00,,,0.00,WeatherCatV1.00B22,2013-02-25 15:51:00,
2013-02-25 10:56:00,44.9,29.7,29.92,NE,40,9.0,15.0,55,0.00,,,0.00,WeatherCatV1.00B22,2013-02-25 15:56:00,
2013-02-25 11:01:00,44.9,29.3,29.93,ESE,111,4.0,8.0,54,0.00,,,0.00,WeatherCatV1.00B22,2013-02-25 16:01:00,
2013-02-25 11:06:00,44.9,28.8,29.92,East,88,7.0,9.0,53,0.00,,,0.00,WeatherCatV1.00B22,2013-02-25 16:06:00,
2013-02-25 11:11:00,45.0,29.4,29.92,NE,49,11.0,11.0,54,0.00,,,0.00,WeatherCatV1.00B22,2013-02-25 16:11:00,
2013-02-25 11:16:00,44.9,29.3,29.92,East,81,8.0,14.0,54,0.00,,,0.00,WeatherCatV1.00B22,2013-02-25 16:16:00,
2013-02-25 11:21:00,44.8,28.7,29.92,NE,54,12.0,18.0,53,0.00,,,0.00,WeatherCatV1.00B22,2013-02-25 16:21:00,
2013-02-25 11:26:00,44.7,28.6,29.91,NE,53,10.0,14.0,53,0.00,,,0.00,WeatherCatV1.00B22,2013-02-25 16:26:00,
2013-02-25 11:31:00,44.7,29.1,29.91,East,82,8.0,14.0,54,0.00,,,0.00,WeatherCatV1.00B22,2013-02-25 16:31:00,
2013-02-25 11:36:00,44.7,28.6,29.91,ENE,63,13.0,16.0,53,0.00,,,0.00,WeatherCatV1.00B22,2013-02-25 16:36:00,
2013-02-25 11:41:00,44.7,29.5,29.91,ESE,107,7.0,9.0,55,0.00,,,0.00,WeatherCatV1.00B22,2013-02-25 16:41:00,
2013-02-25 11:46:00,44.8,29.6,29.91,ENE,67,5.0,10.0,55,0.00,,,0.00,WeatherCatV1.00B22,2013-02-25 16:46:00,
2013-02-25 11:51:00,44.9,29.7,29.91,NE,37,11.0,11.0,55,0.00,,,0.00,WeatherCatV1.00B22,2013-02-25 16:51:00,
2013-02-25 11:56:00,44.9,29.7,29.90,ENE,58,10.0,14.0,55,0.00,,,0.00,WeatherCatV1.00B22,2013-02-25 16:56:00,
2013-02-25 12:01:00,44.7,28.2,29.90,NE,49,11.0,15.0,52,0.00,,,0.00,WeatherCatV1.00B22,2013-02-25 17:01:00,
2013-02-25 12:06:00,44.7,28.6,29.89,NE,38,13.0,16.0,53,0.00,,,0.00,WeatherCatV1.00B22,2013-02-25 17:06:00,
2013-02-25 12:11:00,44.7,29.1,29.88,East,81,14.0,14.0,54,0.00,,,0.00,WeatherCatV1.00B22,2013-02-25 17:11:00,
2013-02-25 12:16:00,44.7,28.2,29.89,NE,36,13.0,18.0,52,0.00,,,0.00,WeatherCatV1.00B22,2013-02-25 17:16:00,
2013-02-25 12:21:00,44.8,29.2,29.90,NNE,30,11.0,19.0,54,0.00,,,0.00,WeatherCatV1.00B22,2013-02-25 17:21:00,
2013-02-25 12:26:00,44.9,29.3,29.90,ENE,63,7.0,17.0,54,0.00,,,0.00,WeatherCatV1.00B22,2013-02-25 17:26:00,
2013-02-25 12:31:00,45.0,29.4,29.90,NE,43,8.0,10.0,54,0.00,,,0.00,WeatherCatV1.00B22,2013-02-25 17:31:00,
2013-02-25 12:36:00,45.1,28.5,29.91,NE,38,12.0,12.0,52,0.00,,,0.00,WeatherCatV1.00B22,2013-02-25 17:36:00,
2013-02-25 12:41:00,45.1,29.0,29.90,East,82,8.0,12.0,53,0.00,,,0.00,WeatherCatV1.00B22,2013-02-25 17:41:00,
2013-02-25 12:46:00,45.2,29.1,29.89,NE,43,9.0,13.0,53,0.00,,,0.00,WeatherCatV1.00B22,2013-02-25 17:46:00,
2013-02-25 12:51:00,45.3,29.6,29.89,East,79,7.0,8.0,54,0.00,,,0.00,WeatherCatV1.00B22,2013-02-25 17:51:00,
2013-02-25 12:56:00,45.4,29.7,29.90,NE,50,5.0,8.0,54,0.00,,,0.00,WeatherCatV1.00B22,2013-02-25 17:56:00,
2013-02-25 13:01:00,45.5,29.8,29.90,ENE,62,4.0,5.0,54,0.00,,,0.00,WeatherCatV1.00B22,2013-02-25 18:01:00,
2013-02-25 13:06:00,45.6,29.5,29.90,NE,46,7.0,8.0,53,0.00,,,0.00,WeatherCatV1.00B22,2013-02-25 18:06:00,
2013-02-25 13:11:00,45.8,30.1,29.89,NE,38,9.0,10.0,54,0.00,,,0.00,WeatherCatV1.00B22,2013-02-25 18:11:00,
2013-02-25 13:16:00,45.8,30.1,29.89,NE,47,7.0,9.0,54,0.00,,,0.00,WeatherCatV1.00B22,2013-02-25 18:16:00,
2013-02-25 13:21:00,45.9,29.3,29.89,NE,47,10.0,13.0,52,0.00,,,0.00,WeatherCatV1.00B22,2013-02-25 18:21:00,
2013-02-25 13:26:00,45.9,29.3,29.89,NE,56,8.0,11.0,52,0.00,,,0.00,WeatherCatV1.00B22,2013-02-25 18:26:00,
2013-02-25 13:31:00,46.1,30.4,29.88,NE,40,8.0,11.0,54,0.00,,,0.00,WeatherCatV1.00B22,2013-02-25 18:31:00,
2013-02-25 13:36:00,46.2,29.6,29.88,NE,41,9.0,13.0,52,0.00,,,0.00,WeatherCatV1.00B22,2013-02-25 18:36:00,
2013-02-25 13:41:00,46.5,29.8,29.87,NE,39,8.0,12.0,52,0.00,,,0.00,WeatherCatV1.00B22,2013-02-25 18:41:00,
2013-02-25 13:46:00,46.7,30.5,29.87,NE,48,8.0,13.0,53,0.00,,,0.00,WeatherCatV1.00B22,2013-02-25 18:46:00,
2013-02-25 13:51:00,46.8,30.1,29.86,ENE,70,5.0,8.0,52,0.00,,,0.00,WeatherCatV1.00B22,2013-02-25 18:51:00,
2013-02-25 13:56:00,47.0,31.2,29.86,ENE,65,8.0,9.0,54,0.00,,,0.00,WeatherCatV1.00B22,2013-02-25 18:56:00,
2013-02-25 14:01:00,47.1,31.3,29.86,ENE,60,8.0,9.0,54,0.00,,,0.00,WeatherCatV1.00B22,2013-02-25 19:01:00,
2013-02-25 14:06:00,47.1,31.3,29.86,NE,42,9.0,9.0,54,0.00,,,0.00,WeatherCatV1.00B22,2013-02-25 19:06:00,
2013-02-25 14:11:00,47.1,31.8,29.86,NNE,25,9.0,11.0,55,0.00,,,0.00,WeatherCatV1.00B22,2013-02-25 19:11:00,
2013-02-25 14:16:00,47.1,31.8,29.86,East,100,5.0,7.0,55,0.00,,,0.00,WeatherCatV1.00B22,2013-02-25 19:16:00,
2013-02-25 14:21:00,47.2,31.0,29.86,ENE,65,5.0,11.0,53,0.00,,,0.00,WeatherCatV1.00B22,2013-02-25 19:21:00,
2013-02-25 14:26:00,47.2,30.5,29.86,NE,55,8.0,10.0,52,0.00,,,0.00,WeatherCatV1.00B22,2013-02-25 19:26:00,
2013-02-25 14:31:00,47.4,31.1,29.86,East,84,7.0,10.0,53,0.00,,,0.00,WeatherCatV1.00B22,2013-02-25 19:31:00,
2013-02-25 14:36:00,47.6,31.3,29.85,NE,45,11.0,13.0,53,0.00,,,0.00,WeatherCatV1.00B22,2013-02-25 19:36:00,
2013-02-25 14:41:00,47.8,32.4,29.85,East,94,5.0,7.0,55,0.00,,,0.00,WeatherCatV1.00B22,2013-02-25 19:41:00,
2013-02-25 14:46:00,48.1,31.8,29.85,NE,54,5.0,7.0,53,0.00,,,0.00,WeatherCatV1.00B22,2013-02-25 19:46:00,
2013-02-25 14:51:00,48.3,31.5,29.86,East,92,8.0,8.0,52,0.00,,,0.00,WeatherCatV1.00B22,2013-02-25 19:51:00,
2013-02-25 14:56:00,48.5,31.7,29.85,ESE,109,9.0,10.0,52,0.00,,,0.00,WeatherCatV1.00B22,2013-02-25 19:56:00,
2013-02-25 15:01:00,48.6,32.3,29.85,East,91,6.0,9.0,53,0.00,,,0.00,WeatherCatV1.00B22,2013-02-25 20:01:00,
2013-02-25 15:06:00,48.7,32.8,29.84,NNE,24,7.0,9.0,54,0.00,,,0.00,WeatherCatV1.00B22,2013-02-25 20:06:00,
2013-02-25 15:11:00,48.8,32.4,29.84,ESE,116,9.0,9.0,53,0.00,,,0.00,WeatherCatV1.00B22,2013-02-25 20:11:00,
2013-02-25 15:16:00,48.7,32.8,29.84,ENE,60,11.0,12.0,54,0.00,,,0.00,WeatherCatV1.00B22,2013-02-25 20:16:00,
2013-02-25 15:21:00,48.6,33.2,29.84,East,88,10.0,16.0,55,0.00,,,0.00,WeatherCatV1.00B22,2013-02-25 20:21:00,
2013-02-25 15:26:00,48.6,32.7,29.84,NNE,28,13.0,14.0,54,0.00,,,0.00,WeatherCatV1.00B22,2013-02-25 20:26:00,
2013-02-25 15:31:00,48.7,32.8,29.84,ENE,57,8.0,8.0,54,0.00,,,0.00,WeatherCatV1.00B22,2013-02-25 20:31:00,
2013-02-25 15:36:00,48.8,32.9,29.83,ENE,78,7.0,11.0,54,0.00,,,0.00,WeatherCatV1.00B22,2013-02-25 20:36:00,
2013-02-25 15:41:00,48.9,32.1,29.83,East,81,7.0,7.0,52,0.00,,,0.00,WeatherCatV1.00B22,2013-02-25 20:41:00,
2013-02-25 15:46:00,49.0,32.6,29.83,East,101,7.0,11.0,53,0.00,,,0.00,WeatherCatV1.00B22,2013-02-25 20:46:00,
2013-02-25 15:51:00,49.0,32.6,29.83,ENE,57,8.0,13.0,53,0.00,,,0.00,WeatherCatV1.00B22,2013-02-25 20:51:00,
2013-02-25 15:56:00,49.0,32.6,29.83,ENE,67,9.0,9.0,53,0.00,,,0.00,WeatherCatV1.00B22,2013-02-25 20:56:00,
2013-02-25 16:01:00,48.9,33.0,29.83,East,94,8.0,15.0,54,0.00,,,0.00,WeatherCatV1.00B22,2013-02-25 21:01:00,
2013-02-25 16:06:00,48.9,32.5,29.83,East,84,8.0,9.0,53,0.00,,,0.00,WeatherCatV1.00B22,2013-02-25 21:06:00,
2013-02-25 16:11:00,48.9,33.0,29.83,East,79,10.0,10.0,54,0.00,,,0.00,WeatherCatV1.00B22,2013-02-25 21:11:00,
2013-02-25 16:16:00,48.9,32.5,29.83,NE,55,10.0,16.0,53,0.00,,,0.00,WeatherCatV1.00B22,2013-02-25 21:16:00,
2013-02-25 16:21:00,48.8,33.4,29.83,East,93,8.0,9.0,55,0.00,,,0.00,WeatherCatV1.00B22,2013-02-25 21:21:00,
2013-02-25 16:26:00,48.9,33.5,29.83,NE,48,6.0,9.0,55,0.00,,,0.00,WeatherCatV1.00B22,2013-02-25 21:26:00,
2013-02-25 16:31:00,49.0,34.0,29.83,East,90,9.0,11.0,56,0.00,,,0.00,WeatherCatV1.00B22,2013-02-25 21:31:00,
2013-02-25 16:36:00,48.8,33.4,29.83,East,82,7.0,12.0,55,0.00,,,0.00,WeatherCatV1.00B22,2013-02-25 21:36:00,
2013-02-25 16:41:00,48.7,34.6,29.82,NE,48,7.0,10.0,58,0.00,,,0.00,WeatherCatV1.00B22,2013-02-25 21:41:00,
2013-02-25 16:46:00,48.6,33.6,29.82,NE,39,13.0,13.0,56,0.00,,,0.00,WeatherCatV1.00B22,2013-02-25 21:46:00,
2013-02-25 16:51:00,48.6,34.1,29.82,NE,34,7.0,9.0,57,0.00,,,0.00,WeatherCatV1.00B22,2013-02-25 21:51:00,
2013-02-25 16:56:00,48.6,33.6,29.82,NE,47,13.0,13.0,56,0.00,,,0.00,WeatherCatV1.00B22,2013-02-25 21:56:00,
2013-02-25 17:01:00,48.5,34.0,29.82,ENE,58,11.0,15.0,57,0.00,,,0.00,WeatherCatV1.00B22,2013-02-25 22:01:00,
2013-02-25 17:06:00,48.4,33.4,29.81,ENE,73,9.0,13.0,56,0.00,,,0.00,WeatherCatV1.00B22,2013-02-25 22:06:00,
2013-02-25 17:11:00,48.2,33.7,29.81,NE,46,14.0,17.0,57,0.00,,,0.00,WeatherCatV1.00B22,2013-02-25 22:11:00,
2013-02-25 17:16:00,48.1,34.0,29.81,ENE,78,8.0,11.0,58,0.00,,,0.00,WeatherCatV1.00B22,2013-02-25 22:16:00,
2013-02-25 17:21:00,47.9,33.8,29.81,ENE,67,10.0,13.0,58,0.00,,,0.00,WeatherCatV1.00B22,2013-02-25 22:21:00,
2013-02-25 17:26:00,47.8,33.7,29.81,NE,44,9.0,10.0,58,0.00,,,0.00,WeatherCatV1.00B22,2013-02-25 22:26:00,
2013-02-25 17:31:00,47.8,33.7,29.81,ENE,66,8.0,15.0,58,0.00,,,0.00,WeatherCatV1.00B22,2013-02-25 22:31:00,
2013-02-25 17:36:00,47.6,33.6,29.81,NE,51,8.0,13.0,58,0.00,,,0.00,WeatherCatV1.00B22,2013-02-25 22:36:00,
2013-02-25 17:41:00,47.5,33.5,29.80,East,83,8.0,13.0,58,0.00,,,0.00,WeatherCatV1.00B22,2013-02-25 22:41:00,
2013-02-25 17:46:00,47.3,33.3,29.80,NE,36,8.0,14.0,58,0.00,,,0.00,WeatherCatV1.00B22,2013-02-25 22:46:00,
2013-02-25 17:51:00,47.2,33.6,29.80,East,90,8.0,10.0,59,0.00,,,0.00,WeatherCatV1.00B22,2013-02-25 22:51:00,
2013-02-25 17:56:00,47.2,34.0,29.80,NE,53,7.0,10.0,60,0.00,,,0.00,WeatherCatV1.00B22,2013-02-25 22:56:00,
2013-02-25 18:01:00,47.1,33.5,29.80,ENE,71,11.0,17.0,59,0.00,,,0.00,WeatherCatV1.00B22,2013-02-25 23:01:00,
2013-02-25 18:06:00,47.0,33.8,29.80,NE,54,6.0,11.0,60,0.00,,,0.00,WeatherCatV1.00B22,2013-02-25 23:06:00,
2013-02-25 18:11:00,46.9,33.3,29.80,NE,40,9.0,12.0,59,0.00,,,0.00,WeatherCatV1.00B22,2013-02-25 23:11:00,
2013-02-25 18:16:00,46.9,33.8,29.81,NE,55,11.0,14.0,60,0.00,,,0.00,WeatherCatV1.00B22,2013-02-25 23:16:00,
2013-02-25 18:21:00,46.8,34.5,29.81,NE,52,12.0,14.0,62,0.00,,,0.00,WeatherCatV1.00B22,2013-02-25 23:21:00,
2013-02-25 18:26:00,46.7,34.4,29.81,NE,51,7.0,10.0,62,0.00,,,0.00,WeatherCatV1.00B22,2013-02-25 23:26:00,
2013-02-25 18:31:00,46.6,33.9,29.81,NE,51,7.0,10.0,61,0.00,,,0.00,WeatherCatV1.00B22,2013-02-25 23:31:00,
2013-02-25 18:36:00,46.5,34.2,29.81,NE,38,7.0,16.0,62,0.00,,,0.00,WeatherCatV1.00B22,2013-02-25 23:36:00,
2013-02-25 18:41:00,46.5,34.2,29.81,East,82,6.0,12.0,62,0.00,,,0.00,WeatherCatV1.00B22,2013-02-25 23:41:00,
2013-02-25 18:46:00,46.4,35.3,29.81,East,87,5.0,7.0,65,0.00,,,0.00,WeatherCatV1.00B22,2013-02-25 23:46:00,
2013-02-25 18:51:00,46.3,34.0,29.81,ENE,59,7.0,11.0,62,0.00,,,0.00,WeatherCatV1.00B22,2013-02-25 23:51:00,
2013-02-25 18:56:00,46.2,34.3,29.81,ENE,69,7.0,9.0,63,0.00,,,0.00,WeatherCatV1.00B22,2013-02-25 23:56:00,
2013-02-25 19:01:00,46.0,34.5,29.82,East,79,6.0,12.0,64,0.00,,,0.00,WeatherCatV1.00B22,2013-02-26 00:01:00,
2013-02-25 19:06:00,45.9,34.0,29.82,East,96,9.0,11.0,63,0.00,,,0.00,WeatherCatV1.00B22,2013-02-26 00:06:00,
2013-02-25 19:11:00,45.8,35.1,29.81,East,85,9.0,16.0,66,0.00,,,0.00,WeatherCatV1.00B22,2013-02-26 00:11:00,
2013-02-25 19:16:00,45.6,34.5,29.81,East,82,7.0,14.0,65,0.00,,,0.00,WeatherCatV1.00B22,2013-02-26 00:16:00,
2013-02-25 19:21:00,45.4,35.1,29.81,NE,38,13.0,18.0,67,0.00,,,0.00,WeatherCatV1.00B22,2013-02-26 00:21:00,
2013-02-25 19:26:00,45.1,35.2,29.82,NE,50,10.0,15.0,68,0.00,,,0.00,WeatherCatV1.00B22,2013-02-26 00:26:00,
2013-02-25 19:31:00,44.7,35.9,29.82,NE,46,14.0,19.0,71,0.00,,,0.00,WeatherCatV1.00B22,2013-02-26 00:31:00,
2013-02-25 19:36:00,44.2,36.4,29.83,East,90,11.0,17.0,74,0.00,,,0.00,WeatherCatV1.00B22,2013-02-26 00:36:00,
2013-02-25 19:41:00,43.9,36.2,29.84,ENE,59,12.0,14.0,74,0.00,,,0.00,WeatherCatV1.00B22,2013-02-26 00:41:00,
2013-02-25 19:46:00,43.7,36.0,29.84,East,82,7.0,12.0,74,0.00,,,0.00,WeatherCatV1.00B22,2013-02-26 00:46:00,
2013-02-25 19:51:00,43.5,36.8,29.84,ENE,76,9.0,12.0,77,0.00,,,0.00,WeatherCatV1.00B22,2013-02-26 00:51:00,
2013-02-25 19:56:00,43.0,36.6,29.83,East,88,7.0,16.0,78,0.00,,,0.00,WeatherCatV1.00B22,2013-02-26 00:56:00,
2013-02-25 20:01:00,42.7,36.3,29.83,ENE,57,5.0,13.0,78,0.00,,,0.00,WeatherCatV1.00B22,2013-02-26 01:01:00,
2013-02-25 20:06:00,42.6,36.9,29.84,East,91,6.0,12.0,80,0.00,,,0.00,WeatherCatV1.00B22,2013-02-26 01:06:00,
2013-02-25 20:11:00,42.5,37.4,29.84,ENE,61,7.0,12.0,82,0.00,,,0.00,WeatherCatV1.00B22,2013-02-26 01:11:00,
2013-02-25 20:16:00,42.3,36.9,29.84,NE,54,7.0,13.0,81,0.00,,,0.00,WeatherCatV1.00B22,2013-02-26 01:16:00,
2013-02-25 20:21:00,42.0,36.9,29.84,ENE,59,10.0,18.0,82,0.00,,,0.00,WeatherCatV1.00B22,2013-02-26 01:21:00,
2013-02-25 20:26:00,41.6,37.1,29.83,NE,49,9.0,14.0,84,0.00,,,0.00,WeatherCatV1.00B22,2013-02-26 01:26:00,
2013-02-25 20:31:00,41.3,37.4,29.83,NE,43,11.0,15.0,86,0.00,,,0.00,WeatherCatV1.00B22,2013-02-26 01:31:00,
2013-02-25 20:36:00,41.0,37.7,29.83,NE,42,7.0,10.0,88,0.00,,,0.00,WeatherCatV1.00B22,2013-02-26 01:36:00,
2013-02-25 20:41:00,40.8,37.5,29.84,NE,50,11.0,13.0,88,0.00,,,0.00,WeatherCatV1.00B22,2013-02-26 01:41:00,
2013-02-25 20:46:00,40.5,37.5,29.83,NNE,32,12.0,13.0,89,0.00,,,0.00,WeatherCatV1.00B22,2013-02-26 01:46:00,
2013-02-25 20:51:00,40.4,37.7,29.83,ENE,69,8.0,11.0,90,0.00,,,0.00,WeatherCatV1.00B22,2013-02-26 01:51:00,
2013-02-25 20:56:00,40.1,37.7,29.83,NE,44,10.0,14.0,91,0.00,,,0.00,WeatherCatV1.00B22,2013-02-26 01:56:00,
2013-02-25 21:01:00,40.1,37.7,29.83,NNE,32,13.0,14.0,91,0.00,,,0.00,WeatherCatV1.00B22,2013-02-26 02:01:00,
2013-02-25 21:06:00,40.0,37.6,29.84,NE,55,9.0,11.0,91,0.00,,,0.00,WeatherCatV1.00B22,2013-02-26 02:06:00,
2013-02-25 21:11:00,39.9,37.8,29.84,East,87,8.0,12.0,92,0.00,,,0.00,WeatherCatV1.00B22,2013-02-26 02:11:00,
2013-02-25 21:16:00,39.8,37.7,29.83,NE,47,8.0,10.0,92,0.00,,,0.00,WeatherCatV1.00B22,2013-02-26 02:16:00,
2013-02-25 21:21:00,39.8,37.7,29.83,ENE,74,8.0,11.0,92,0.00,,,0.00,WeatherCatV1.00B22,2013-02-26 02:21:00,
2013-02-25 21:26:00,39.7,37.6,29.83,ENE,69,5.0,9.0,92,0.00,,,0.00,WeatherCatV1.00B22,2013-02-26 02:26:00,
2013-02-25 21:31:00,39.6,37.7,29.83,NE,46,9.0,10.0,93,0.00,,,0.00,WeatherCatV1.00B22,2013-02-26 02:31:00,
2013-02-25 21:36:00,39.6,37.7,29.82,East,83,5.0,7.0,93,0.00,,,0.00,WeatherCatV1.00B22,2013-02-26 02:36:00,
2013-02-25 21:41:00,39.6,38.0,29.82,ENE,61,7.0,10.0,94,0.00,,,0.00,WeatherCatV1.00B22,2013-02-26 02:41:00,
2013-02-25 21:46:00,39.5,37.6,29.82,NE,47,13.0,15.0,93,0.00,,,0.00,WeatherCatV1.00B22,2013-02-26 02:46:00,
2013-02-25 21:51:00,39.3,37.4,29.81,NE,46,13.0,17.0,93,0.00,,,0.00,WeatherCatV1.00B22,2013-02-26 02:51:00,
2013-02-25 21:56:00,39.2,37.3,29.81,NE,50,11.0,15.0,93,0.00,,,0.00,WeatherCatV1.00B22,2013-02-26 02:56:00,
2013-02-25 22:01:00,39.1,37.2,29.80,NE,47,11.0,17.0,93,0.00,,,0.00,WeatherCatV1.00B22,2013-02-26 03:01:00,
2013-02-25 22:06:00,39.1,37.2,29.81,ENE,68,8.0,13.0,93,0.00,,,0.00,WeatherCatV1.00B22,2013-02-26 03:06:00,
2013-02-25 22:11:00,39.1,37.2,29.81,NNE,21,13.0,18.0,93,0.00,,,0.00,WeatherCatV1.00B22,2013-02-26 03:11:00,
2013-02-25 22:16:00,39.0,37.2,29.81,NE,54,12.0,16.0,93,0.00,,,0.00,WeatherCatV1.00B22,2013-02-26 03:16:00,
2013-02-25 22:21:00,39.0,37.2,29.82,East,86,9.0,12.0,93,0.00,,,0.00,WeatherCatV1.00B22,2013-02-26 03:21:00,
2013-02-25 22:26:00,38.9,37.1,29.81,ENE,74,10.0,12.0,93,0.00,,,0.00,WeatherCatV1.00B22,2013-02-26 03:26:00,
2013-02-25 22:31:00,38.9,37.1,29.81,NE,43,10.0,14.0,93,0.00,,,0.00,WeatherCatV1.00B22,2013-02-26 03:31:00,
2013-02-25 22:36:00,38.8,37.0,29.81,ENE,72,7.0,15.0,93,0.00,,,0.00,WeatherCatV1.00B22,2013-02-26 03:36:00,
2013-02-25 22:41:00,38.8,37.0,29.81,East,80,6.0,9.0,93,0.00,,,0.00,WeatherCatV1.00B22,2013-02-26 03:41:00,
2013-02-25 22:46:00,38.8,37.0,29.80,NE,46,11.0,14.0,93,0.00,,,0.00,WeatherCatV1.00B22,2013-02-26 03:46:00,
2013-02-25 22:51:00,38.8,37.0,29.81,NE,42,12.0,17.0,93,0.00,,,0.00,WeatherCatV1.00B22,2013-02-26 03:51:00,
2013-02-25 22:56:00,38.8,37.0,29.81,East,82,15.0,18.0,93,0.00,,,0.00,WeatherCatV1.00B22,2013-02-26 03:56:00,
2013-02-25 23:01:00,38.7,36.9,29.81,ENE,61,9.0,14.0,93,0.00,,,0.00,WeatherCatV1.00B22,2013-02-26 04:01:00,
2013-02-25 23:06:00,38.6,36.8,29.81,ENE,71,9.0,14.0,93,0.00,,,0.00,WeatherCatV1.00B22,2013-02-26 04:06:00,
2013-02-25 23:11:00,38.6,36.8,29.81,NE,50,5.0,14.0,93,0.00,,,0.00,WeatherCatV1.00B22,2013-02-26 04:11:00,
2013-02-25 23:16:00,38.4,36.6,29.81,NE,45,13.0,16.0,93,0.00,,,0.00,WeatherCatV1.00B22,2013-02-26 04:16:00,
2013-02-25 23:21:00,38.3,36.5,29.81,NE,44,16.0,16.0,93,0.00,,,0.00,WeatherCatV1.00B22,2013-02-26 04:21:00,
2013-02-25 23:26:00,38.3,36.5,29.80,NE,36,7.0,16.0,93,0.00,,,0.00,WeatherCatV1.00B22,2013-02-26 04:26:00,
2013-02-25 23:31:00,38.2,36.4,29.80,NE,48,10.0,14.0,93,0.00,,,0.00,WeatherCatV1.00B22,2013-02-26 04:31:00,
2013-02-25 23:36:00,38.2,36.4,29.79,NE,38,13.0,22.0,93,0.00,,,0.00,WeatherCatV1.00B22,2013-02-26 04:36:00,
2013-02-25 23:41:00,38.2,36.4,29.79,East,80,13.0,13.0,93,0.00,,,0.00,WeatherCatV1.00B22,2013-02-26 04:41:00,
2013-02-25 23:46:00,38.1,36.3,29.79,ENE,58,13.0,16.0,93,0.00,,,0.00,WeatherCatV1.00B22,2013-02-26 04:46:00,
2013-02-25 23:51:00,38.1,36.3,29.78,ENE,59,13.0,20.0,93,0.00,,,0.00,WeatherCatV1.00B22,2013-02-26 04:51:00,
2013-02-25 23:56:00,38.0,36.2,29.78,NE,46,11.0,13.0,93,0.00,,,0.00,WeatherCatV1.00B22,2013-02-26 04:56:00,